createdAt,value
2018-09-15T00:00:59.197Z,81.51
2018-09-15T00:03:27.750Z,81.70
2018-09-15T00:05:56.250Z,81.75
2018-09-15T00:08:24.733Z,81.68
2018-09-15T00:10:53.254Z,82.06
2018-09-15T00:13:22.816Z,82.42
2018-09-15T00:15:51.649Z,82.51
2018-09-15T00:18:20.172Z,82.75
2018-09-15T00:20:48.716Z,82.95
2018-09-15T00:23:17.221Z,83.19
2018-09-15T00:25:45.777Z,83.56
2018-09-15T00:28:14.271Z,83.82
2018-09-15T00:30:43.079Z,83.86
2018-09-15T00:33:11.628Z,83.75
2018-09-15T00:35:40.179Z,83.69
2018-09-15T00:38:08.642Z,83.83
2018-09-15T00:40:37.177Z,83.79
2018-09-15T00:43:05.706Z,83.92
2018-09-15T00:45:34.245Z,83.88
2018-09-15T00:48:02.791Z,84.24
2018-09-15T00:50:31.317Z,84.79
2018-09-15T00:52:59.781Z,84.77
2018-09-15T00:55:28.330Z,84.33
2018-09-15T00:57:56.818Z,84.40
2018-09-15T01:00:25.398Z,83.54
2018-09-15T01:02:53.924Z,83.36
2018-09-15T01:05:22.458Z,83.45
2018-09-15T01:07:50.955Z,82.82
2018-09-15T01:10:19.433Z,82.59
2018-09-15T01:12:47.951Z,82.56
2018-09-15T01:15:16.473Z,82.47
2018-09-15T01:17:44.993Z,82.48
2018-09-15T01:20:13.497Z,82.16
2018-09-15T01:22:42.020Z,82.37
2018-09-15T01:25:10.500Z,82.53
2018-09-15T01:27:39.082Z,81.81
2018-09-15T01:30:07.597Z,81.80
2018-09-15T01:32:36.106Z,82.23
2018-09-15T01:35:04.642Z,82.17
2018-09-15T01:37:33.149Z,81.84
2018-09-15T01:40:01.647Z,81.88
2018-09-15T01:42:30.162Z,81.83
2018-09-15T01:44:58.653Z,81.48
2018-09-15T01:47:27.173Z,81.69
2018-09-15T01:49:55.705Z,81.87
2018-09-15T01:52:24.274Z,81.68
2018-09-15T01:54:52.756Z,81.65
2018-09-15T01:57:21.292Z,81.11
2018-09-15T01:59:49.778Z,81.45
2018-09-15T02:02:18.299Z,81.13
2018-09-15T02:04:46.792Z,81.07
2018-09-15T02:07:15.321Z,81.31
2018-09-15T02:09:43.806Z,82.82
2018-09-15T02:12:12.350Z,83.65
2018-09-15T02:14:40.810Z,82.94
2018-09-15T02:17:09.454Z,83.24
2018-09-15T02:19:37.901Z,83.92
2018-09-15T02:22:06.526Z,84.32
2018-09-15T02:24:35.006Z,85.94
2018-09-15T02:27:03.513Z,85.76
2018-09-15T02:29:31.995Z,86.40
2018-09-15T02:32:00.505Z,87.37
2018-09-15T02:34:29.000Z,87.42
2018-09-15T02:36:57.517Z,86.81
2018-09-15T02:39:26.070Z,86.14
2018-09-15T02:41:54.579Z,85.45
2018-09-15T02:44:23.046Z,85.08
2018-09-15T02:46:51.574Z,84.76
2018-09-15T02:49:20.050Z,84.47
2018-09-15T02:51:48.574Z,83.98
2018-09-15T02:54:17.089Z,84.41
2018-09-15T02:56:45.619Z,83.89
2018-09-15T02:59:14.138Z,83.48
2018-09-15T03:01:42.658Z,83.62
2018-09-15T03:04:11.133Z,84.15
2018-09-15T03:06:39.618Z,83.79
2018-09-15T03:09:10.270Z,84.15
2018-09-15T03:11:38.809Z,84.60
2018-09-15T03:14:07.339Z,84.23
2018-09-15T03:16:35.976Z,84.68
2018-09-15T03:19:04.518Z,85.37
2018-09-15T03:21:32.992Z,84.75
2018-09-15T03:24:01.502Z,84.25
2018-09-15T03:26:30.224Z,84.34
2018-09-15T03:28:58.745Z,85.98
2018-09-15T03:31:27.259Z,85.41
2018-09-15T03:33:55.758Z,85.60
2018-09-15T03:36:24.252Z,85.01
2018-09-15T03:38:52.770Z,85.41
2018-09-15T03:41:21.336Z,85.02
2018-09-15T03:43:49.906Z,84.88
2018-09-15T03:46:18.451Z,85.36
2018-09-15T03:48:46.949Z,85.28
2018-09-15T03:51:15.454Z,84.55
2018-09-15T03:53:43.953Z,84.25
2018-09-15T03:56:12.446Z,84.21
2018-09-15T03:58:40.990Z,84.20
2018-09-15T04:01:09.503Z,84.79
2018-09-15T04:03:38.006Z,85.14
2018-09-15T04:06:06.488Z,85.85
2018-09-15T04:08:34.994Z,86.19
2018-09-15T04:11:03.567Z,86.51
2018-09-15T04:13:32.051Z,86.71
2018-09-15T04:16:00.538Z,85.77
2018-09-15T04:18:29.082Z,86.50
2018-09-15T04:20:57.583Z,85.44
2018-09-15T04:23:26.085Z,85.34
2018-09-15T04:25:54.582Z,84.86
2018-09-15T04:28:23.162Z,84.28
2018-09-15T04:30:51.714Z,84.25
2018-09-15T04:33:20.231Z,84.74
2018-09-15T04:35:48.693Z,84.89
2018-09-15T04:38:17.195Z,85.12
2018-09-15T04:40:45.665Z,85.25
2018-09-15T04:43:14.183Z,84.93
2018-09-15T04:45:42.698Z,85.38
2018-09-15T04:48:11.245Z,85.47
2018-09-15T04:50:39.766Z,84.95
2018-09-15T04:53:08.298Z,85.63
2018-09-15T04:55:36.787Z,85.19
2018-09-15T04:58:05.362Z,85.75
2018-09-15T05:00:33.892Z,85.67
2018-09-15T05:03:02.401Z,84.82
2018-09-15T05:05:30.915Z,85.04
2018-09-15T05:08:00.343Z,84.45
2018-09-15T05:10:28.873Z,84.00
2018-09-15T05:12:57.474Z,84.05
2018-09-15T05:15:25.970Z,83.59
2018-09-15T05:17:54.478Z,83.83
2018-09-15T05:20:25.113Z,83.98
2018-09-15T05:22:53.665Z,83.86
2018-09-15T05:25:22.218Z,84.31
2018-09-15T05:27:50.693Z,84.55
2018-09-15T05:30:19.219Z,86.22
2018-09-15T05:32:51.636Z,86.78
2018-09-15T05:35:20.173Z,87.21
2018-09-15T05:37:48.665Z,87.94
2018-09-15T05:40:17.201Z,87.62
2018-09-15T05:42:45.744Z,87.72
2018-09-15T05:45:14.270Z,87.94
2018-09-15T05:47:42.758Z,88.21
2018-09-15T05:50:11.307Z,88.66
2018-09-15T05:52:39.797Z,88.53
2018-09-15T05:55:08.318Z,89.04
2018-09-15T05:57:36.779Z,88.49
2018-09-15T06:00:05.692Z,87.77
2018-09-15T06:02:34.170Z,86.69
2018-09-15T06:05:02.685Z,85.59
2018-09-15T06:07:31.333Z,84.84
2018-09-15T06:09:59.831Z,84.76
2018-09-15T06:12:28.309Z,84.20
2018-09-15T06:14:56.818Z,84.81
2018-09-15T06:17:25.317Z,84.73
2018-09-15T06:19:53.833Z,83.80
2018-09-15T06:22:22.341Z,83.64
2018-09-15T06:24:50.866Z,82.98
2018-09-15T06:27:19.354Z,82.02
2018-09-15T06:29:47.881Z,81.81
2018-09-15T06:32:16.418Z,81.78
2018-09-15T06:34:44.981Z,80.69
2018-09-15T06:37:17.108Z,79.71
2018-09-15T06:39:45.950Z,77.47
2018-09-15T06:42:14.450Z,76.10
2018-09-15T06:44:42.999Z,73.30
2018-09-15T06:47:11.476Z,70.73
2018-09-15T06:49:42.870Z,69.69
2018-09-15T06:52:13.329Z,69.79
2018-09-15T06:54:42.246Z,71.21
2018-09-15T06:57:10.771Z,73.40
2018-09-15T06:59:41.132Z,72.02
2018-09-15T07:02:09.651Z,70.91
2018-09-15T07:04:41.907Z,70.81
2018-09-15T07:07:10.398Z,72.15
2018-09-15T07:09:38.945Z,73.48
2018-09-15T07:12:07.474Z,73.76
2018-09-15T07:14:35.949Z,73.67
2018-09-15T07:17:04.491Z,73.28
2018-09-15T07:19:32.989Z,72.62
2018-09-15T07:22:01.490Z,70.82
2018-09-15T07:24:30.242Z,71.18
2018-09-15T07:26:58.762Z,70.72
2018-09-15T07:29:27.446Z,69.56
2018-09-15T07:31:55.995Z,69.44
2018-09-15T07:34:24.484Z,70.91
2018-09-15T07:36:53.002Z,71.40
2018-09-15T07:39:22.772Z,71.36
2018-09-15T07:41:51.319Z,68.73
2018-09-15T07:44:19.834Z,60.70
2018-09-15T07:46:48.357Z,50.98
2018-09-15T07:49:16.998Z,45.44
2018-09-15T07:51:45.558Z,45.20
2018-09-15T07:54:14.000Z,44.54
2018-09-15T07:56:42.557Z,40.61
2018-09-15T07:59:11.027Z,37.21
2018-09-15T08:01:39.538Z,35.90
2018-09-15T08:04:08.163Z,32.03
2018-09-15T08:06:36.687Z,36.19
2018-09-15T08:09:06.594Z,35.75
2018-09-15T08:11:35.079Z,39.66
2018-09-15T08:14:03.578Z,42.36
2018-09-15T08:16:32.101Z,47.21
2018-09-15T08:19:00.602Z,51.25
2018-09-15T08:21:29.103Z,53.84
2018-09-15T08:23:57.587Z,52.05
2018-09-15T08:26:26.161Z,48.09
2018-09-15T08:28:54.594Z,43.55
2018-09-15T08:31:23.112Z,46.51
2018-09-15T08:33:51.605Z,52.47
2018-09-15T08:36:20.134Z,53.32
2018-09-15T08:38:48.613Z,52.93
2018-09-15T08:41:17.179Z,45.84
2018-09-15T08:43:45.694Z,38.88
2018-09-15T08:46:14.171Z,31.97
2018-09-15T08:48:42.710Z,32.52
2018-09-15T08:51:11.206Z,38.79
2018-09-15T08:53:39.706Z,41.00
2018-09-15T08:56:08.258Z,39.88
2018-09-15T08:58:36.783Z,38.92
2018-09-15T09:01:05.390Z,36.57
2018-09-15T09:03:33.963Z,34.17
2018-09-15T09:06:02.446Z,35.06
2018-09-15T09:08:30.973Z,35.35
2018-09-15T09:10:59.431Z,37.58
2018-09-15T09:13:27.966Z,34.58
2018-09-15T09:15:56.454Z,30.69
2018-09-15T09:18:24.980Z,30.72
2018-09-15T09:20:53.490Z,35.04
2018-09-15T09:23:22.296Z,34.89
2018-09-15T09:25:50.844Z,31.74
2018-09-15T09:28:19.335Z,27.20
2018-09-15T09:30:47.825Z,25.18
2018-09-15T09:33:16.338Z,26.62
2018-09-15T09:35:44.858Z,28.63
2018-09-15T09:38:13.442Z,27.87
2018-09-15T09:40:41.923Z,26.31
2018-09-15T09:43:10.498Z,24.24
2018-09-15T09:45:38.992Z,26.34
2018-09-15T09:48:07.535Z,30.31
2018-09-15T09:50:36.022Z,31.16
2018-09-15T09:53:04.537Z,26.65
2018-09-15T09:55:33.057Z,27.52
2018-09-15T09:58:01.593Z,24.75
2018-09-15T10:00:35.259Z,25.00
2018-09-15T10:03:03.759Z,23.10
2018-09-15T10:05:32.275Z,24.47
2018-09-15T10:08:00.782Z,25.17
2018-09-15T10:10:29.366Z,25.28
2018-09-15T10:12:57.844Z,24.02
2018-09-15T10:15:26.369Z,24.39
2018-09-15T10:17:54.865Z,23.70
2018-09-15T10:20:23.390Z,23.95
2018-09-15T10:22:51.925Z,23.04
2018-09-15T10:25:20.433Z,22.52
2018-09-15T10:27:48.907Z,20.67
2018-09-15T10:30:17.418Z,20.89
2018-09-15T10:32:45.908Z,22.91
2018-09-15T10:35:14.434Z,24.34
2018-09-15T10:37:42.893Z,24.29
2018-09-15T10:40:11.460Z,26.32
2018-09-15T10:42:39.918Z,25.13
2018-09-15T10:45:08.449Z,27.08
2018-09-15T10:47:36.966Z,28.28
2018-09-15T10:50:05.512Z,28.71
2018-09-15T10:52:33.984Z,28.47
2018-09-15T10:55:02.489Z,29.86
2018-09-15T10:57:30.987Z,30.95
2018-09-15T10:59:59.557Z,30.85
2018-09-15T11:02:28.054Z,29.47
2018-09-15T11:04:56.565Z,29.27
2018-09-15T11:07:25.973Z,28.69
2018-09-15T11:09:54.493Z,28.82
2018-09-15T11:12:23.016Z,26.79
2018-09-15T11:14:51.507Z,26.94
2018-09-15T11:17:20.018Z,28.24
2018-09-15T11:19:48.515Z,25.77
2018-09-15T11:22:17.048Z,24.94
2018-09-15T11:24:45.574Z,24.15
2018-09-15T11:27:14.087Z,25.08
2018-09-15T11:29:42.565Z,24.14
2018-09-15T11:32:11.094Z,23.80
2018-09-15T11:34:39.590Z,23.18
2018-09-15T11:37:08.098Z,23.57
2018-09-15T11:39:36.598Z,23.62
2018-09-15T11:42:05.129Z,20.62
2018-09-15T11:44:33.605Z,20.48
2018-09-15T11:47:02.128Z,22.20
2018-09-15T11:49:30.617Z,23.79
2018-09-15T11:51:59.118Z,26.10
2018-09-15T11:54:27.705Z,27.22
2018-09-15T11:56:56.202Z,28.44
2018-09-15T11:59:24.690Z,30.31
2018-09-15T12:01:53.190Z,31.68
2018-09-15T12:04:21.665Z,33.66
2018-09-15T12:06:50.164Z,35.02
2018-09-15T12:09:18.626Z,34.91
2018-09-15T12:11:47.122Z,35.43
2018-09-15T12:14:15.639Z,34.88
2018-09-15T12:16:44.135Z,31.95
2018-09-15T12:19:12.614Z,29.23
2018-09-15T12:21:41.990Z,29.62
2018-09-15T12:24:10.459Z,29.60
2018-09-15T12:26:38.945Z,31.53
2018-09-15T12:29:07.478Z,30.02
2018-09-15T12:31:35.994Z,29.24
2018-09-15T12:34:04.599Z,28.46
2018-09-15T12:36:33.094Z,29.40
2018-09-15T12:39:01.579Z,28.34
2018-09-15T12:41:30.091Z,28.47
2018-09-15T12:43:58.580Z,28.84
2018-09-15T12:46:27.105Z,28.13
2018-09-15T12:48:55.573Z,30.94
2018-09-15T12:51:24.071Z,32.08
2018-09-15T12:53:52.569Z,34.69
2018-09-15T12:56:21.043Z,33.88
2018-09-15T12:58:49.559Z,32.23
2018-09-15T13:01:18.068Z,32.92
2018-09-15T13:03:46.516Z,30.14
2018-09-15T13:06:15.060Z,30.24
2018-09-15T13:08:43.561Z,28.34
2018-09-15T13:11:12.009Z,28.62
2018-09-15T13:13:40.481Z,29.09
2018-09-15T13:16:08.939Z,27.76
2018-09-15T13:18:37.442Z,28.62
2018-09-15T13:21:05.921Z,30.14
2018-09-15T13:23:34.434Z,28.10
2018-09-15T13:26:02.930Z,27.71
2018-09-15T13:28:31.445Z,27.91
2018-09-15T13:30:59.935Z,27.86
2018-09-15T13:33:28.505Z,27.67
2018-09-15T13:35:56.987Z,27.83
2018-09-15T13:38:25.491Z,24.25
2018-09-15T13:40:53.975Z,24.94
2018-09-15T13:43:22.502Z,25.38
2018-09-15T13:45:50.974Z,24.64
2018-09-15T13:48:19.704Z,24.35
2018-09-15T13:50:48.161Z,24.04
2018-09-15T13:53:16.696Z,25.27
2018-09-15T13:55:45.180Z,25.48
2018-09-15T13:58:13.701Z,25.19
2018-09-15T14:00:42.173Z,26.46
2018-09-15T14:03:10.694Z,26.35
2018-09-15T14:05:39.161Z,25.69
2018-09-15T14:08:07.699Z,26.68
2018-09-15T14:10:36.218Z,25.46
2018-09-15T14:13:04.683Z,26.71
2018-09-15T14:15:33.151Z,28.39
2018-09-15T14:18:01.656Z,29.68
2018-09-15T14:20:30.118Z,30.45
2018-09-15T14:22:58.594Z,31.22
2018-09-15T14:25:27.153Z,32.38
2018-09-15T14:27:55.648Z,31.74
2018-09-15T14:30:24.110Z,28.42
2018-09-15T14:32:52.614Z,27.85
2018-09-15T14:35:21.090Z,27.44
2018-09-15T14:37:49.602Z,27.15
2018-09-15T14:40:18.053Z,26.13
2018-09-15T14:42:46.594Z,25.59
2018-09-15T14:45:15.103Z,27.33
2018-09-15T14:47:43.586Z,27.76
2018-09-15T14:50:12.067Z,24.59
2018-09-15T14:52:40.565Z,24.15
2018-09-15T14:55:09.067Z,22.91
2018-09-15T14:57:37.531Z,23.00
2018-09-15T15:00:07.378Z,24.41
2018-09-15T15:02:35.909Z,24.62
2018-09-15T15:05:04.460Z,24.49
2018-09-15T15:07:33.001Z,24.36
2018-09-15T15:10:01.473Z,24.45
2018-09-15T15:12:29.963Z,23.38
2018-09-15T15:14:58.486Z,23.87
2018-09-15T15:17:26.933Z,23.91
2018-09-15T15:19:55.438Z,24.03
2018-09-15T15:22:23.914Z,23.00
2018-09-15T15:24:52.397Z,24.04
2018-09-15T15:27:20.860Z,23.39
2018-09-15T15:29:49.354Z,23.75
2018-09-15T15:32:17.807Z,23.57
2018-09-15T15:34:46.318Z,24.46
2018-09-15T15:37:14.776Z,25.60
2018-09-15T15:39:43.281Z,24.69
2018-09-15T15:42:11.788Z,24.66
2018-09-15T15:44:40.291Z,24.46
2018-09-15T15:47:08.749Z,24.03
2018-09-15T15:49:37.298Z,24.03
2018-09-15T15:52:05.946Z,24.27
2018-09-15T15:54:34.433Z,24.19
2018-09-15T15:57:02.932Z,23.96
2018-09-15T15:59:31.430Z,24.86
2018-09-15T16:01:59.901Z,26.06
2018-09-15T16:04:28.471Z,26.51
2018-09-15T16:06:56.910Z,26.87
2018-09-15T16:09:25.465Z,26.31
2018-09-15T16:11:53.933Z,26.24
2018-09-15T16:14:22.417Z,27.60
2018-09-15T16:16:50.869Z,29.23
2018-09-15T16:19:19.366Z,28.47
2018-09-15T16:21:47.825Z,27.93
2018-09-15T16:24:16.313Z,27.88
2018-09-15T16:26:44.794Z,27.89
2018-09-15T16:29:13.299Z,27.66
2018-09-15T16:31:41.840Z,27.65
2018-09-15T16:34:10.342Z,28.11
2018-09-15T16:36:38.785Z,28.44
2018-09-15T16:39:09.274Z,29.79
2018-09-15T16:41:38.090Z,30.02
2018-09-15T16:44:06.749Z,30.41
2018-09-15T16:46:35.649Z,29.94
2018-09-15T16:49:04.438Z,30.83
2018-09-15T16:51:32.909Z,31.07
2018-09-15T16:54:01.386Z,31.54
2018-09-15T16:56:29.876Z,31.48
2018-09-15T16:58:58.345Z,32.71
2018-09-15T17:01:26.821Z,33.57
2018-09-15T17:03:55.285Z,34.36
2018-09-15T17:06:23.810Z,35.31
2018-09-15T17:08:52.269Z,35.47
2018-09-15T17:11:20.829Z,36.05
2018-09-15T17:13:49.346Z,37.72
2018-09-15T17:16:17.945Z,38.12
2018-09-15T17:18:46.398Z,38.39
2018-09-15T17:21:14.905Z,38.84
2018-09-15T17:23:43.374Z,39.60
2018-09-15T17:26:11.870Z,40.17
2018-09-15T17:28:40.346Z,40.69
2018-09-15T17:31:08.963Z,41.10
2018-09-15T17:33:37.409Z,41.84
2018-09-15T17:36:07.838Z,42.73
2018-09-15T17:38:36.362Z,42.79
2018-09-15T17:41:04.893Z,44.08
2018-09-15T17:43:33.386Z,44.01
2018-09-15T17:46:01.905Z,44.67
2018-09-15T17:48:33.194Z,46.05
2018-09-15T17:51:01.721Z,46.77
2018-09-15T17:53:30.201Z,48.37
2018-09-15T17:55:58.708Z,48.79
2018-09-15T17:58:27.200Z,48.58
2018-09-15T18:00:55.694Z,49.18
2018-09-15T18:03:24.215Z,49.85
2018-09-15T18:05:52.685Z,49.59
2018-09-15T18:08:21.170Z,50.17
2018-09-15T18:10:49.774Z,51.28
2018-09-15T18:20:19.794Z,55.17
2018-09-15T18:22:55.091Z,53.93
2018-09-15T18:25:23.674Z,53.75
2018-09-15T18:27:52.170Z,54.76
2018-09-15T18:30:20.663Z,54.42
2018-09-15T18:32:49.190Z,56.05
2018-09-15T18:35:17.656Z,56.32
2018-09-15T18:37:46.127Z,56.23
2018-09-15T18:40:14.582Z,56.45
2018-09-15T18:42:43.082Z,56.27
2018-09-15T18:45:11.586Z,56.87
2018-09-15T18:47:40.092Z,56.67
2018-09-15T18:50:08.573Z,55.93
2018-09-15T18:52:37.070Z,56.16
2018-09-15T18:55:05.562Z,56.46
2018-09-15T18:57:34.045Z,56.60
2018-09-15T19:00:02.573Z,58.07
2018-09-15T19:02:31.057Z,58.57
2018-09-15T19:04:59.514Z,59.40
2018-09-15T19:07:28.003Z,59.78
2018-09-15T19:09:56.468Z,59.85
2018-09-15T19:12:24.961Z,59.36
2018-09-15T19:14:53.458Z,59.17
2018-09-15T19:17:21.944Z,59.70
2018-09-15T19:19:50.417Z,59.47
2018-09-15T19:22:18.933Z,58.99
2018-09-15T19:24:47.445Z,59.90
2018-09-15T19:27:16.022Z,59.29
2018-09-15T19:29:44.511Z,58.99
2018-09-15T19:32:13.027Z,59.23
2018-09-15T19:34:41.630Z,60.22
2018-09-15T19:37:10.136Z,60.82
2018-09-15T19:39:38.605Z,61.47
2018-09-15T19:42:07.481Z,61.74
2018-09-15T19:44:35.948Z,62.70
2018-09-15T19:47:09.474Z,62.08
2018-09-15T19:49:37.958Z,61.73
2018-09-15T19:52:06.499Z,62.59
2018-09-15T19:54:34.946Z,62.82
2018-09-15T19:57:03.457Z,63.24
2018-09-15T19:59:31.977Z,62.85
2018-09-15T20:02:00.488Z,62.79
2018-09-15T20:04:28.964Z,62.31
2018-09-15T20:06:57.521Z,62.61
2018-09-15T20:09:26.025Z,62.71
2018-09-15T20:11:54.502Z,63.64
2018-09-15T20:14:22.973Z,64.41
2018-09-15T20:16:50.234Z,63.80
2018-09-15T20:19:17.526Z,63.12
2018-09-15T20:21:44.788Z,62.12
2018-09-15T20:24:13.286Z,61.99
2018-09-15T20:26:41.733Z,61.40
2018-09-15T20:29:10.213Z,61.40
2018-09-15T20:31:38.711Z,61.28
2018-09-15T20:34:07.218Z,61.31
2018-09-15T20:36:35.711Z,61.39
2018-09-15T20:39:06.343Z,61.96
2018-09-15T20:41:34.812Z,62.24
2018-09-15T20:44:03.329Z,62.33
2018-09-15T20:46:32.024Z,62.66
2018-09-15T20:49:00.557Z,62.77
2018-09-15T20:51:29.193Z,62.20
2018-09-15T20:53:57.664Z,62.06
2018-09-15T20:56:26.137Z,61.37
2018-09-15T20:58:54.620Z,60.15
2018-09-15T21:01:23.091Z,60.60
2018-09-15T21:03:51.602Z,59.39
2018-09-15T21:06:20.070Z,58.95
2018-09-15T21:08:48.550Z,58.62
2018-09-15T21:11:17.018Z,58.53
2018-09-15T21:13:45.546Z,57.67
2018-09-15T21:16:14.030Z,58.76
2018-09-15T21:18:42.533Z,60.65
2018-09-15T21:21:10.967Z,60.83
2018-09-15T21:23:39.447Z,60.87
2018-09-15T21:26:07.914Z,59.61
2018-09-15T21:28:36.410Z,59.25
2018-09-15T21:31:04.945Z,61.06
2018-09-15T21:33:33.446Z,60.47
2018-09-15T21:36:01.937Z,60.12
2018-09-15T21:38:30.471Z,58.64
2018-09-15T21:40:58.899Z,58.80
2018-09-15T21:43:27.409Z,59.20
2018-09-15T21:45:55.858Z,58.90
2018-09-15T21:48:24.347Z,59.21
2018-09-15T21:50:52.831Z,59.48
2018-09-15T21:53:21.343Z,59.51
2018-09-15T21:55:49.822Z,59.76
2018-09-15T21:58:18.306Z,59.87
2018-09-15T22:00:46.881Z,60.06
2018-09-15T22:03:16.165Z,60.15
2018-09-15T22:05:44.658Z,60.54
2018-09-15T22:08:13.115Z,60.25
2018-09-15T22:10:41.620Z,60.05
2018-09-15T22:13:10.068Z,60.28
2018-09-15T22:15:38.569Z,60.83
2018-09-15T22:18:07.025Z,61.01
2018-09-15T22:20:35.533Z,61.61
2018-09-15T22:23:03.989Z,61.75
2018-09-15T22:25:32.484Z,64.11
2018-09-15T22:28:00.953Z,64.80
2018-09-15T22:30:29.433Z,66.03
2018-09-15T22:32:57.911Z,66.32
2018-09-15T22:35:26.399Z,66.30
2018-09-15T22:37:54.866Z,67.90
2018-09-15T22:40:23.361Z,68.73
2018-09-15T22:42:51.840Z,69.46
2018-09-15T22:45:20.341Z,69.11
2018-09-15T22:47:48.817Z,69.69
2018-09-15T22:50:17.310Z,69.90
2018-09-15T22:52:45.796Z,69.83
2018-09-15T22:55:14.297Z,71.51
2018-09-15T22:57:42.764Z,71.37
2018-09-15T23:00:11.386Z,71.36
2018-09-15T23:02:39.849Z,71.27
2018-09-15T23:05:08.380Z,71.42
2018-09-15T23:07:36.846Z,71.34
2018-09-15T23:10:05.657Z,71.99
2018-09-15T23:12:34.129Z,72.24
2018-09-15T23:15:02.642Z,72.14
2018-09-15T23:17:31.104Z,72.89
2018-09-15T23:19:59.589Z,72.56
2018-09-15T23:22:28.049Z,72.34
2018-09-15T23:24:56.580Z,72.75
2018-09-15T23:27:25.019Z,72.44
2018-09-15T23:29:53.513Z,72.39
2018-09-15T23:32:21.965Z,72.97
2018-09-15T23:34:50.469Z,72.75
2018-09-15T23:37:18.921Z,74.19
2018-09-15T23:39:47.410Z,74.67
2018-09-15T23:42:15.904Z,74.92
2018-09-15T23:44:44.389Z,74.14
2018-09-15T23:47:12.850Z,74.12
2018-09-15T23:49:41.353Z,74.33
2018-09-15T23:52:09.862Z,75.20
2018-09-15T23:54:38.340Z,74.38
2018-09-15T23:57:06.883Z,74.67
2018-09-15T23:59:35.350Z,74.98
